createdAt,value
2022-10-06T00:00:39.041Z,8.700
2022-10-06T00:01:36.272Z,5.050
2022-10-06T00:02:25.481Z,6.150
2022-10-06T00:03:21.293Z,4.900
2022-10-06T00:04:35.615Z,5.950
2022-10-06T00:05:21.707Z,3.700
2022-10-06T00:06:27.969Z,4.450
2022-10-06T00:07:34.613Z,5.000
2022-10-06T00:08:34.471Z,4.100
2022-10-06T00:09:25.613Z,4.300
2022-10-06T00:10:23.733Z,4.350
2022-10-06T00:11:36.150Z,4.100
2022-10-06T00:12:27.675Z,4.850
2022-10-06T00:13:26.729Z,5.450
2022-10-06T00:14:27.887Z,6.100
2022-10-06T00:15:36.032Z,7.100
2022-10-06T00:16:28.148Z,6.100
2022-10-06T00:17:23.941Z,6.550
2022-10-06T00:18:32.007Z,5.700
2022-10-06T00:19:29.649Z,5.900
2022-10-06T00:20:28.637Z,7.300
2022-10-06T00:21:29.068Z,6.650
2022-10-06T00:22:21.450Z,5.500
2022-10-06T00:23:25.696Z,6.000
2022-10-06T00:24:24.458Z,7.500
2022-10-06T00:25:46.571Z,6.800
2022-10-06T00:26:32.610Z,6.250
2022-10-06T00:27:23.419Z,7.600
2022-10-06T00:28:37.661Z,7.000
2022-10-06T00:29:25.254Z,7.700
2022-10-06T00:30:28.299Z,8.150
2022-10-06T00:31:21.586Z,7.700
2022-10-06T00:32:26.769Z,6.300
2022-10-06T00:33:29.728Z,7.050
2022-10-06T00:34:20.234Z,5.500
2022-10-06T00:35:40.245Z,5.300
2022-10-06T00:36:33.309Z,5.250
2022-10-06T00:37:22.051Z,4.600
2022-10-06T00:38:23.044Z,5.000
2022-10-06T00:39:29.093Z,3.750
2022-10-06T00:40:20.836Z,4.650
2022-10-06T00:41:23.417Z,4.800
2022-10-06T00:42:33.508Z,5.100
2022-10-06T00:43:33.902Z,4.950
2022-10-06T00:44:25.312Z,4.100
2022-10-06T00:45:24.973Z,4.950
2022-10-06T00:46:35.007Z,4.250
2022-10-06T00:47:27.161Z,4.200
2022-10-06T00:48:23.410Z,5.500
2022-10-06T00:49:35.053Z,4.550
2022-10-06T00:50:31.449Z,3.950
2022-10-06T00:51:25.197Z,4.100
2022-10-06T00:52:25.642Z,4.550
2022-10-06T00:53:37.405Z,5.100
2022-10-06T00:54:31.819Z,7.200
2022-10-06T00:55:25.003Z,4.700
2022-10-06T00:56:35.997Z,4.400
2022-10-06T00:57:32.476Z,4.500
2022-10-06T00:58:26.135Z,5.400
2022-10-06T00:59:21.336Z,4.900
2022-10-06T01:00:41.568Z,3.850
2022-10-06T01:01:35.566Z,3.800
2022-10-06T01:02:26.229Z,4.000
2022-10-06T01:03:33.671Z,4.200
2022-10-06T02:24:40.843Z,4.600
2022-10-06T02:25:26.576Z,4.400
2022-10-06T02:26:25.576Z,5.300
2022-10-06T02:27:23.433Z,6.400
2022-10-06T02:28:32.319Z,6.050
2022-10-06T02:29:26.711Z,5.550
2022-10-06T02:30:33.127Z,5.500
2022-10-06T02:31:37.799Z,5.000
2022-10-06T02:32:43.341Z,5.350
2022-10-06T02:33:31.374Z,4.800
2022-10-06T02:34:27.527Z,6.450
2022-10-06T03:51:57.670Z,7.400
2022-10-06T03:52:38.156Z,6.550
2022-10-06T03:53:29.896Z,8.000
2022-10-06T03:54:25.766Z,7.350
2022-10-06T03:55:27.615Z,6.100
2022-10-06T03:56:31.354Z,5.650
2022-10-06T03:57:39.261Z,6.250
2022-10-06T03:58:21.470Z,6.300
2022-10-06T03:59:31.148Z,6.700
2022-10-06T04:00:23.513Z,7.750
2022-10-06T04:01:26.402Z,7.200
2022-10-06T04:02:37.128Z,8.050
2022-10-06T04:03:29.418Z,8.500
2022-10-06T04:04:26.032Z,6.450
2022-10-06T04:05:20.711Z,7.350
2022-10-06T04:06:22.812Z,8.000
2022-10-06T04:07:27.723Z,7.700
2022-10-06T04:08:22.498Z,6.300
2022-10-06T04:09:22.192Z,6.350
2022-10-06T04:10:29.964Z,7.150
2022-10-06T04:11:23.522Z,6.200
2022-10-06T04:12:22.038Z,8.700
2022-10-06T04:13:33.030Z,7.300
2022-10-06T04:14:27.399Z,7.200
2022-10-06T04:15:23.967Z,8.250
2022-10-06T04:16:27.825Z,8.000
2022-10-06T04:17:29.010Z,7.800
2022-10-06T04:18:23.846Z,5.900
2022-10-06T04:19:19.494Z,7.300
2022-10-06T04:20:25.507Z,7.650
2022-10-06T04:21:27.858Z,7.600
2022-10-06T04:22:22.622Z,8.350
2022-10-06T04:23:24.215Z,6.700
2022-10-06T04:24:22.103Z,6.550
2022-10-06T04:25:26.022Z,9.000
2022-10-06T04:26:19.800Z,6.250
2022-10-06T04:27:27.731Z,7.350
2022-10-06T04:28:25.809Z,8.750
2022-10-06T04:29:24.817Z,5.900
2022-10-06T04:30:32.516Z,5.700
2022-10-06T04:31:31.722Z,6.750
2022-10-06T04:32:25.677Z,7.000
2022-10-06T04:33:19.677Z,9.450
2022-10-06T04:34:22.517Z,8.850
2022-10-06T04:35:25.756Z,7.950
2022-10-06T04:36:30.598Z,6.500
2022-10-06T04:37:32.914Z,7.350
2022-10-06T04:38:31.341Z,7.350
2022-10-06T04:39:25.431Z,6.500
2022-10-06T04:40:22.599Z,7.000
2022-10-06T04:41:31.354Z,8.200
2022-10-06T04:42:34.867Z,6.800
2022-10-06T04:43:25.699Z,6.800
2022-10-06T04:44:35.801Z,6.450
2022-10-06T04:45:27.905Z,8.700
2022-10-06T04:46:44.550Z,8.000
2022-10-06T04:47:23.672Z,6.000
2022-10-06T04:48:32.966Z,5.500
2022-10-06T04:49:25.348Z,4.750
2022-10-06T04:50:21.568Z,8.000
2022-10-06T04:51:28.555Z,6.450
2022-10-06T04:52:29.063Z,7.200
2022-10-06T04:53:25.540Z,7.700
2022-10-06T04:54:19.597Z,8.900
2022-10-06T04:55:29.454Z,8.600
2022-10-06T04:56:26.215Z,8.600
2022-10-06T04:57:21.443Z,7.650
2022-10-06T04:58:25.956Z,8.250
2022-10-06T04:59:28.790Z,5.900
2022-10-06T05:00:23.418Z,5.200
2022-10-06T05:01:32.043Z,4.900
2022-10-06T05:02:31.380Z,6.900
2022-10-06T05:03:28.020Z,5.900
2022-10-06T05:04:21.700Z,5.800
2022-10-06T05:05:25.090Z,7.900
2022-10-06T05:06:31.713Z,7.150
2022-10-06T05:07:23.701Z,5.200
2022-10-06T05:08:21.321Z,5.850
2022-10-06T05:09:26.875Z,7.850
2022-10-06T05:10:30.514Z,7.300
2022-10-06T05:11:25.850Z,6.300
2022-10-06T05:12:25.356Z,6.700
2022-10-06T05:13:26.369Z,8.700
2022-10-06T05:14:29.488Z,8.750
2022-10-06T05:15:19.531Z,8.400
2022-10-06T05:16:21.253Z,7.750
2022-10-06T05:17:24.778Z,7.550
2022-10-06T05:18:22.967Z,7.500
2022-10-06T05:19:23.459Z,8.800
2022-10-06T05:20:30.899Z,7.800
2022-10-06T05:21:23.016Z,7.900
2022-10-06T05:22:20.336Z,8.150
2022-10-06T05:23:26.507Z,8.300
2022-10-06T05:24:28.858Z,8.350
2022-10-06T05:25:27.760Z,10.100
2022-10-06T05:26:33.298Z,9.200
2022-10-06T05:27:30.887Z,10.400
2022-10-06T05:28:26.956Z,9.650
2022-10-06T05:29:23.907Z,12.200
2022-10-06T05:30:26.391Z,9.350
2022-10-06T05:31:26.125Z,6.800
2022-10-06T05:32:23.142Z,6.600
2022-10-06T05:33:33.994Z,6.900
2022-10-06T05:34:21.352Z,7.950
2022-10-06T05:35:23.820Z,7.800
2022-10-06T05:36:28.740Z,8.000
2022-10-06T05:37:29.663Z,11.350
2022-10-06T05:38:28.392Z,12.400
2022-10-06T05:39:23.320Z,10.050
2022-10-06T05:40:19.566Z,8.300
2022-10-06T05:41:24.682Z,7.900
2022-10-06T05:42:28.744Z,8.700
2022-10-06T05:43:19.753Z,10.200
2022-10-06T05:44:29.742Z,11.600
2022-10-06T05:45:29.107Z,11.550
2022-10-06T05:46:21.741Z,11.100
2022-10-06T05:47:25.154Z,11.400
2022-10-06T05:48:30.735Z,12.050
2022-10-06T05:49:24.917Z,11.400
2022-10-06T05:50:21.154Z,10.850
2022-10-06T05:51:30.304Z,10.900
2022-10-06T05:52:22.663Z,12.400
2022-10-06T05:53:31.964Z,13.300
2022-10-06T05:54:29.155Z,16.300
2022-10-06T05:55:20.845Z,13.550
2022-10-06T05:56:23.573Z,13.500
2022-10-06T05:57:19.708Z,12.750
2022-10-06T05:58:29.937Z,15.000
2022-10-06T05:59:22.552Z,13.200
2022-10-06T06:00:23.350Z,14.800
2022-10-06T06:01:32.615Z,12.100
2022-10-06T06:02:28.100Z,13.150
2022-10-06T06:03:26.164Z,12.700
2022-10-06T06:04:25.035Z,13.850
2022-10-06T06:05:34.564Z,14.850
2022-10-06T06:06:30.767Z,13.900
2022-10-06T06:07:23.925Z,15.850
2022-10-06T06:08:32.712Z,15.200
2022-10-06T06:09:29.113Z,14.500
2022-10-06T06:10:23.977Z,17.800
2022-10-06T06:11:21.767Z,14.400
2022-10-06T06:12:29.845Z,15.250
2022-10-06T06:13:29.017Z,15.800
2022-10-06T06:14:21.685Z,17.900
2022-10-06T06:15:22.843Z,16.100
2022-10-06T06:16:29.139Z,15.950
2022-10-06T06:17:26.065Z,13.950
2022-10-06T06:18:22.176Z,15.800
2022-10-06T06:19:31.166Z,16.300
2022-10-06T06:20:28.900Z,14.250
2022-10-06T06:21:22.983Z,11.900
2022-10-06T06:22:36.478Z,16.800
2022-10-06T06:23:30.384Z,17.700
2022-10-06T06:24:28.923Z,15.900
2022-10-06T06:25:21.894Z,15.200
2022-10-06T06:26:33.582Z,15.400
2022-10-06T06:27:25.619Z,18.800
2022-10-06T06:28:25.194Z,12.700
2022-10-06T06:29:23.857Z,17.350
2022-10-06T06:30:28.805Z,16.350
2022-10-06T06:31:24.004Z,16.400
2022-10-06T06:32:24.065Z,18.050
2022-10-06T06:33:19.848Z,12.600
2022-10-06T06:34:29.203Z,14.200
2022-10-06T06:35:23.065Z,18.400
2022-10-06T06:36:26.879Z,20.200
2022-10-06T06:37:21.402Z,18.500
2022-10-06T06:38:23.877Z,20.850
2022-10-06T06:39:28.400Z,21.400
2022-10-06T06:40:23.812Z,20.100
2022-10-06T06:41:40.863Z,17.950
2022-10-06T06:42:21.814Z,17.500
2022-10-06T06:43:35.281Z,19.400
2022-10-06T06:44:27.032Z,22.150
2022-10-06T06:45:24.829Z,23.900
2022-10-06T06:46:20.070Z,22.900
2022-10-06T06:47:29.488Z,20.900
2022-10-06T06:48:20.368Z,22.200
2022-10-06T06:49:30.801Z,20.400
2022-10-06T06:50:25.820Z,19.100
2022-10-06T06:51:28.032Z,19.750
2022-10-06T06:52:24.852Z,22.300
2022-10-06T06:53:21.265Z,19.900
2022-10-06T06:54:35.562Z,19.900
2022-10-06T06:55:24.624Z,20.000
2022-10-06T06:56:23.449Z,14.300
2022-10-06T06:57:36.056Z,18.050
2022-10-06T06:58:31.729Z,18.350
2022-10-06T06:59:26.594Z,17.850
2022-10-06T07:00:22.882Z,19.700
2022-10-06T07:01:31.969Z,16.900
2022-10-06T07:02:29.825Z,18.000
2022-10-06T07:03:44.903Z,17.000
2022-10-06T07:04:31.209Z,18.750
2022-10-06T07:05:32.011Z,17.300
2022-10-06T07:06:28.065Z,14.500
2022-10-06T07:07:24.121Z,16.700
2022-10-06T07:08:24.229Z,16.950
2022-10-06T07:09:34.389Z,18.300
2022-10-06T07:10:21.455Z,17.500
2022-10-06T07:11:34.123Z,15.300
2022-10-06T07:12:33.481Z,17.000
2022-10-06T07:13:25.863Z,14.450
2022-10-06T07:14:20.876Z,15.500
2022-10-06T07:15:19.710Z,15.500
2022-10-06T07:16:25.482Z,13.650
2022-10-06T07:17:22.986Z,15.700
2022-10-06T07:18:25.593Z,11.750
2022-10-06T07:19:29.672Z,13.150
2022-10-06T07:20:23.495Z,13.200
2022-10-06T07:21:19.746Z,11.300
2022-10-06T07:22:30.573Z,12.100
2022-10-06T07:23:28.027Z,10.000
2022-10-06T07:24:23.458Z,13.150
2022-10-06T07:25:26.775Z,13.300
2022-10-06T07:26:22.031Z,13.100
2022-10-06T07:27:24.497Z,10.300
2022-10-06T07:28:19.988Z,13.000
2022-10-06T07:29:32.879Z,12.000
2022-10-06T07:30:22.097Z,11.000
2022-10-06T07:31:22.688Z,11.800
2022-10-06T07:32:31.754Z,10.800
2022-10-06T07:33:30.516Z,11.450
2022-10-06T07:34:25.811Z,8.300
2022-10-06T07:35:20.991Z,9.150
2022-10-06T07:36:37.875Z,8.500
2022-10-06T07:37:20.012Z,8.500
2022-10-06T07:38:24.800Z,8.700
2022-10-06T07:39:37.361Z,8.750
2022-10-06T07:40:32.265Z,8.400
2022-10-06T07:41:25.267Z,8.300
2022-10-06T07:42:22.741Z,8.100
2022-10-06T07:43:30.727Z,7.250
2022-10-06T07:44:28.955Z,7.150
2022-10-06T07:45:21.846Z,8.600
2022-10-06T07:46:31.434Z,8.450
2022-10-06T07:47:27.959Z,7.700
2022-10-06T07:48:24.793Z,6.800
2022-10-06T07:49:19.789Z,7.100
2022-10-06T07:50:30.031Z,6.700
2022-10-06T07:51:28.667Z,6.250
2022-10-06T07:52:22.233Z,6.900
2022-10-06T07:53:31.489Z,8.250
2022-10-06T07:54:29.031Z,7.200
2022-10-06T07:55:23.902Z,5.600
2022-10-06T07:56:25.107Z,6.800
2022-10-06T07:57:36.960Z,7.000
2022-10-06T07:58:25.689Z,7.100
2022-10-06T07:59:22.800Z,7.550
2022-10-06T08:00:24.881Z,8.600
2022-10-06T08:01:27.592Z,8.000
2022-10-06T08:02:25.678Z,7.000
2022-10-06T08:03:19.771Z,6.950
2022-10-06T08:04:29.466Z,7.400
2022-10-06T08:05:25.691Z,8.150
2022-10-06T08:06:37.710Z,8.950
2022-10-06T08:07:27.772Z,7.800
2022-10-06T08:08:21.770Z,7.700
2022-10-06T08:09:29.463Z,6.750
2022-10-06T08:10:22.854Z,6.300
2022-10-06T08:11:27.104Z,7.700
2022-10-06T08:12:25.694Z,6.250
2022-10-06T08:13:25.136Z,9.500
2022-10-06T08:14:33.860Z,8.800
2022-10-06T08:15:33.157Z,8.800
2022-10-06T08:16:23.596Z,6.800
2022-10-06T08:17:19.739Z,7.450
2022-10-06T08:18:45.462Z,8.850
2022-10-06T08:19:22.340Z,7.550
2022-10-06T08:20:21.521Z,8.400
2022-10-06T08:21:35.030Z,6.500
2022-10-06T08:22:29.329Z,9.600
2022-10-06T08:23:24.829Z,7.100
2022-10-06T08:24:20.169Z,8.300
2022-10-06T08:25:30.821Z,7.800
2022-10-06T08:26:31.082Z,7.050
2022-10-06T08:27:24.803Z,7.800
2022-10-06T08:28:31.896Z,9.250
2022-10-06T08:29:28.575Z,8.400
2022-10-06T08:30:28.773Z,8.600
2022-10-06T08:31:24.506Z,5.700
2022-10-06T08:32:29.713Z,7.150
2022-10-06T08:33:27.720Z,8.850
2022-10-06T08:34:22.883Z,7.300
2022-10-06T08:35:31.905Z,8.050
2022-10-06T08:36:32.319Z,9.300
2022-10-06T08:37:24.049Z,7.900
2022-10-06T08:38:22.221Z,7.900
2022-10-06T08:39:33.735Z,8.800
2022-10-06T08:40:29.000Z,8.100
2022-10-06T08:41:26.279Z,7.000
2022-10-06T08:42:25.375Z,8.200
2022-10-06T08:43:28.074Z,8.150
2022-10-06T08:44:27.980Z,7.300
2022-10-06T08:45:19.480Z,9.150
2022-10-06T08:46:23.900Z,9.900
2022-10-06T08:47:27.237Z,9.100
2022-10-06T08:48:22.011Z,9.700
2022-10-06T08:49:26.748Z,8.000
2022-10-06T08:50:29.235Z,8.450
2022-10-06T08:51:23.993Z,7.550
2022-10-06T08:52:23.621Z,7.100
2022-10-06T08:53:24.435Z,7.850
2022-10-06T08:54:26.572Z,6.150
2022-10-06T08:55:25.309Z,7.800
2022-10-06T08:56:29.292Z,6.650
2022-10-06T08:57:29.837Z,8.250
2022-10-06T08:58:26.897Z,10.600
2022-10-06T08:59:21.316Z,8.300
2022-10-06T09:00:28.428Z,7.400
2022-10-06T09:01:21.456Z,8.100
2022-10-06T09:02:24.012Z,9.100
2022-10-06T09:03:33.517Z,7.450
2022-10-06T09:04:25.335Z,7.300
2022-10-06T09:05:27.038Z,7.600
2022-10-06T09:06:25.555Z,7.200
2022-10-06T09:07:26.577Z,7.550
2022-10-06T09:08:43.784Z,7.650
2022-10-06T09:09:23.893Z,7.700
2022-10-06T09:10:33.551Z,6.700
2022-10-06T09:11:20.333Z,8.650
2022-10-06T09:12:23.912Z,10.400
2022-10-06T09:13:22.216Z,8.150
2022-10-06T09:14:32.647Z,6.900
2022-10-06T09:15:25.612Z,9.000
2022-10-06T09:16:22.895Z,9.300
2022-10-06T09:17:31.841Z,7.400
2022-10-06T09:18:24.731Z,6.500
2022-10-06T09:19:31.332Z,6.900
2022-10-06T09:20:24.811Z,9.600
2022-10-06T09:21:35.496Z,7.450
2022-10-06T09:22:29.013Z,7.750
2022-10-06T09:23:26.070Z,7.500
2022-10-06T09:24:23.458Z,9.800
2022-10-06T09:25:27.743Z,9.500
2022-10-06T09:26:27.424Z,8.250
2022-10-06T09:27:20.919Z,9.350
2022-10-06T09:28:36.535Z,9.300
2022-10-06T09:29:29.338Z,10.050
2022-10-06T09:30:21.617Z,10.900
2022-10-06T09:31:27.850Z,10.250
2022-10-06T09:32:29.596Z,11.700
2022-10-06T09:33:23.739Z,9.450
2022-10-06T09:34:19.819Z,7.050
2022-10-06T09:35:31.922Z,7.300
2022-10-06T09:36:25.341Z,6.350
2022-10-06T09:37:24.911Z,6.500
2022-10-06T09:38:35.398Z,6.800
2022-10-06T09:39:21.095Z,7.500
2022-10-06T09:40:25.277Z,6.700
2022-10-06T09:41:19.851Z,7.850
2022-10-06T09:42:22.862Z,6.550
2022-10-06T09:43:23.116Z,6.100
2022-10-06T09:44:21.351Z,8.400
2022-10-06T09:45:32.588Z,7.000
2022-10-06T09:46:30.366Z,7.500
2022-10-06T09:47:23.865Z,6.850
2022-10-06T09:48:24.594Z,7.000
2022-10-06T09:49:34.610Z,6.600
2022-10-06T09:50:26.902Z,6.200
2022-10-06T09:51:23.951Z,6.400
2022-10-06T09:52:35.953Z,6.550
2022-10-06T09:53:29.506Z,5.800
2022-10-06T09:54:25.838Z,6.800
2022-10-06T09:55:20.920Z,7.450
2022-10-06T09:56:30.194Z,6.700
2022-10-06T09:57:24.091Z,6.200
2022-10-06T09:58:22.767Z,7.250
2022-10-06T09:59:35.113Z,6.100
2022-10-06T10:00:24.572Z,7.500
2022-10-06T10:01:32.836Z,7.250
2022-10-06T10:02:35.628Z,5.800
2022-10-06T10:03:29.719Z,5.850
2022-10-06T10:04:27.370Z,6.550
2022-10-06T10:05:23.462Z,8.750
2022-10-06T10:06:31.464Z,7.500
2022-10-06T10:07:29.408Z,6.800
2022-10-06T10:08:23.861Z,7.950
2022-10-06T10:09:21.979Z,6.000
2022-10-06T10:10:29.585Z,8.050
2022-10-06T10:11:21.934Z,7.500
2022-10-06T10:12:24.146Z,6.000
2022-10-06T10:13:31.929Z,7.600
2022-10-06T10:14:32.327Z,7.650
2022-10-06T10:15:26.385Z,6.750
2022-10-06T10:16:21.365Z,7.300
2022-10-06T10:17:22.938Z,5.550
2022-10-06T10:18:25.630Z,6.300
2022-10-06T10:19:21.850Z,6.700
2022-10-06T10:20:22.069Z,5.400
2022-10-06T10:21:30.002Z,6.800
2022-10-06T10:22:25.612Z,6.400
2022-10-06T10:23:28.596Z,6.850
2022-10-06T10:24:28.575Z,8.650
2022-10-06T10:25:26.733Z,6.700
2022-10-06T10:26:29.725Z,7.500
2022-10-06T10:27:25.142Z,6.200
2022-10-06T10:28:23.896Z,7.450
2022-10-06T10:29:23.666Z,5.900
2022-10-06T10:30:21.641Z,6.000
2022-10-06T10:31:43.335Z,7.400
2022-10-06T10:32:26.149Z,6.200
2022-10-06T10:33:24.059Z,6.500
2022-10-06T10:34:24.879Z,6.600
2022-10-06T10:35:21.142Z,6.600
2022-10-06T10:36:23.525Z,9.100
2022-10-06T10:37:24.081Z,6.000
2022-10-06T10:38:32.481Z,6.900
2022-10-06T10:39:22.151Z,5.800
2022-10-06T10:40:21.551Z,5.750
2022-10-06T10:41:25.083Z,6.300
2022-10-06T10:42:28.061Z,5.700
2022-10-06T10:43:23.516Z,6.900
2022-10-06T10:44:19.602Z,5.050
2022-10-06T10:45:21.562Z,5.650
2022-10-06T10:46:26.077Z,5.400
2022-10-06T10:47:25.585Z,6.000
2022-10-06T10:48:28.166Z,5.050
2022-10-06T10:49:30.221Z,5.100
2022-10-06T10:50:23.449Z,5.900
2022-10-06T10:51:19.578Z,5.850
2022-10-06T10:52:24.415Z,7.500
2022-10-06T10:53:25.854Z,5.100
2022-10-06T10:54:21.507Z,5.950
2022-10-06T10:55:23.390Z,4.900
2022-10-06T10:56:23.346Z,5.100
2022-10-06T10:57:29.229Z,5.850
2022-10-06T10:58:22.495Z,5.650
2022-10-06T10:59:26.324Z,5.900
2022-10-06T11:00:27.314Z,5.400
2022-10-06T11:01:25.061Z,5.600
2022-10-06T11:02:30.079Z,6.300
2022-10-06T11:03:23.012Z,5.600
2022-10-06T11:04:27.377Z,3.000
2022-10-06T11:05:19.587Z,6.600
2022-10-06T11:06:29.598Z,4.500
2022-10-06T11:07:21.747Z,4.700
2022-10-06T11:08:22.418Z,6.550
2022-10-06T11:09:31.784Z,5.600
2022-10-06T11:10:27.642Z,5.100
2022-10-06T11:11:23.983Z,4.900
2022-10-06T11:12:22.362Z,4.900
2022-10-06T11:13:25.568Z,5.700
2022-10-06T11:14:27.448Z,4.900
2022-10-06T11:15:35.607Z,6.500
2022-10-06T11:16:35.167Z,6.100
2022-10-06T11:17:29.952Z,5.900
2022-10-06T11:18:27.451Z,4.400
2022-10-06T11:19:30.160Z,4.800
2022-10-06T11:20:26.623Z,6.300
2022-10-06T11:21:21.950Z,6.000
2022-10-06T11:22:24.225Z,3.600
2022-10-06T11:23:31.522Z,4.100
2022-10-06T11:24:21.424Z,6.950
2022-10-06T11:25:23.979Z,7.200
2022-10-06T11:26:21.512Z,5.800
2022-10-06T11:27:31.533Z,4.300
2022-10-06T11:28:23.939Z,6.350
2022-10-06T11:29:21.846Z,6.400
2022-10-06T11:30:33.861Z,6.100
2022-10-06T11:31:27.757Z,5.650
2022-10-06T11:32:23.672Z,5.100
2022-10-06T11:33:21.937Z,6.550
2022-10-06T11:34:33.904Z,5.300
2022-10-06T11:35:30.505Z,5.000
2022-10-06T11:36:23.482Z,5.400
2022-10-06T11:37:33.872Z,6.850
2022-10-06T11:38:30.948Z,6.150
2022-10-06T11:39:24.007Z,7.200
2022-10-06T11:40:19.747Z,6.700
2022-10-06T11:41:26.415Z,3.800
2022-10-06T11:42:25.784Z,4.500
2022-10-06T11:43:22.311Z,6.150
2022-10-06T11:44:36.497Z,12.500
2022-10-06T11:45:29.183Z,6.000
2022-10-06T11:46:31.049Z,5.450
2022-10-06T11:47:35.160Z,4.500
2022-10-06T11:48:23.360Z,5.500
2022-10-06T11:49:25.668Z,5.550
2022-10-06T11:50:23.682Z,5.400
2022-10-06T11:51:46.936Z,6.150
2022-10-06T11:52:23.312Z,4.800
2022-10-06T11:53:23.914Z,6.150
2022-10-06T11:54:22.199Z,6.650
2022-10-06T11:55:25.922Z,6.000
2022-10-06T11:56:28.081Z,6.750
2022-10-06T11:57:30.918Z,6.500
2022-10-06T11:58:41.939Z,5.250
2022-10-06T11:59:27.917Z,6.000
2022-10-06T12:00:26.146Z,5.600
2022-10-06T12:01:21.508Z,6.950
2022-10-06T12:02:34.225Z,4.750
2022-10-06T12:03:26.102Z,6.600
2022-10-06T12:04:24.848Z,5.300
2022-10-06T12:05:55.331Z,7.050
2022-10-06T12:06:22.260Z,6.150
2022-10-06T12:07:25.002Z,7.300
2022-10-06T12:08:24.056Z,4.950
2022-10-06T12:09:22.906Z,6.400
2022-10-06T12:10:33.202Z,6.300
2022-10-06T12:11:23.410Z,5.300
2022-10-06T12:12:32.124Z,6.650
2022-10-06T12:14:12.429Z,7.000
2022-10-06T12:16:58.215Z,7.000
2022-10-06T12:17:19.510Z,5.800
2022-10-06T12:17:20.293Z,5.100
2022-10-06T12:17:20.552Z,5.850
2022-10-06T12:17:27.712Z,5.500
2022-10-06T12:18:32.494Z,5.000
2022-10-06T12:19:22.688Z,5.550
2022-10-06T12:20:23.725Z,4.900
2022-10-06T12:21:26.462Z,5.050
2022-10-06T12:22:20.949Z,5.500
2022-10-06T12:23:31.519Z,5.950
2022-10-06T12:24:28.649Z,6.150
2022-10-06T12:25:21.963Z,6.600
2022-10-06T12:26:24.289Z,5.050
2022-10-06T12:27:31.011Z,6.000
2022-10-06T12:28:26.792Z,5.100
2022-10-06T12:29:22.145Z,5.550
2022-10-06T12:30:31.659Z,4.850
2022-10-06T12:31:25.826Z,6.800
2022-10-06T12:32:24.632Z,6.300
2022-10-06T12:33:26.394Z,8.200
2022-10-06T12:34:27.637Z,9.700
2022-10-06T12:35:24.350Z,7.150
2022-10-06T12:36:24.993Z,6.500
2022-10-06T12:37:23.754Z,6.900
2022-10-06T12:38:26.177Z,6.350
2022-10-06T12:39:26.474Z,7.800
2022-10-06T12:40:36.338Z,5.600
2022-10-06T12:41:22.832Z,6.200
2022-10-06T12:42:23.688Z,7.900
2022-10-06T12:43:19.789Z,6.900
2022-10-06T12:44:24.430Z,6.100
2022-10-06T12:45:30.063Z,6.150
2022-10-06T12:46:21.727Z,5.500
2022-10-06T12:47:34.086Z,8.800
2022-10-06T12:48:29.340Z,7.200
2022-10-06T12:49:20.069Z,6.200
2022-10-06T12:50:20.007Z,5.600
2022-10-06T12:51:25.496Z,6.250
2022-10-06T12:52:28.105Z,6.600
2022-10-06T12:53:21.691Z,5.700
2022-10-06T12:54:23.575Z,6.300
2022-10-06T12:55:25.575Z,5.700
2022-10-06T12:56:24.138Z,7.300
2022-10-06T12:57:21.296Z,5.950
2022-10-06T12:58:32.439Z,5.650
2022-10-06T12:59:24.219Z,8.000
2022-10-06T13:00:22.699Z,7.100
2022-10-06T13:01:31.926Z,5.450
2022-10-06T13:02:31.112Z,6.100
2022-10-06T13:03:24.163Z,6.700
2022-10-06T13:04:23.304Z,7.000
2022-10-06T13:05:22.259Z,6.800
2022-10-06T13:06:20.388Z,8.700
2022-10-06T13:07:24.756Z,7.200
2022-10-06T13:08:32.003Z,7.250
2022-10-06T13:09:29.684Z,7.600
2022-10-06T13:10:23.972Z,6.500
2022-10-06T13:11:22.511Z,6.200
2022-10-06T13:12:34.163Z,6.800
2022-10-06T13:13:31.920Z,7.700
2022-10-06T13:14:24.616Z,6.300
2022-10-06T13:15:34.965Z,6.200
2022-10-06T13:16:31.861Z,10.100
2022-10-06T13:17:26.582Z,6.450
2022-10-06T13:18:19.745Z,7.250
2022-10-06T13:19:25.446Z,6.150
2022-10-06T13:20:27.649Z,6.600
2022-10-06T13:21:25.065Z,7.100
2022-10-06T13:22:22.356Z,5.800
2022-10-06T13:23:38.161Z,7.200
2022-10-06T13:24:24.026Z,5.200
2022-10-06T13:25:21.409Z,6.950
2022-10-06T13:26:30.922Z,6.350
2022-10-06T13:27:20.546Z,6.250
2022-10-06T13:28:22.199Z,6.900
2022-10-06T13:29:29.785Z,5.400
2022-10-06T13:30:28.047Z,6.700
2022-10-06T13:31:24.408Z,7.100
2022-10-06T13:32:21.313Z,7.450
2022-10-06T13:33:32.258Z,5.250
2022-10-06T13:34:26.032Z,6.800
2022-10-06T13:35:22.081Z,6.450
2022-10-06T13:36:27.612Z,7.350
2022-10-06T13:37:27.849Z,7.100
2022-10-06T13:38:23.889Z,7.650
2022-10-06T13:39:25.236Z,9.100
2022-10-06T13:40:44.107Z,8.100
2022-10-06T13:41:29.142Z,6.100
2022-10-06T13:42:22.394Z,6.800
2022-10-06T13:43:38.801Z,6.000
2022-10-06T13:44:23.504Z,6.800
2022-10-06T13:45:23.741Z,6.750
2022-10-06T13:46:20.181Z,6.100
2022-10-06T13:47:29.673Z,5.650
2022-10-06T13:48:25.704Z,6.300
2022-10-06T13:49:22.979Z,6.650
2022-10-06T13:50:21.749Z,6.100
2022-10-06T13:51:27.659Z,4.900
2022-10-06T13:52:23.934Z,5.450
2022-10-06T13:53:21.743Z,8.000
2022-10-06T13:54:29.535Z,6.900
2022-10-06T13:55:28.110Z,7.600
2022-10-06T13:56:22.611Z,5.900
2022-10-06T13:57:23.399Z,6.550
2022-10-06T13:58:27.669Z,5.150
2022-10-06T13:59:25.340Z,6.600
2022-10-06T14:00:20.168Z,7.350
2022-10-06T14:01:34.262Z,6.000
2022-10-06T14:02:28.759Z,6.550
2022-10-06T14:03:25.867Z,6.750
2022-10-06T14:04:28.697Z,6.300
2022-10-06T14:05:22.075Z,5.500
2022-10-06T14:06:23.662Z,5.000
2022-10-06T14:07:30.698Z,6.750
2022-10-06T14:08:31.773Z,7.150
2022-10-06T14:09:26.853Z,6.900
2022-10-06T14:10:23.806Z,6.800
2022-10-06T14:11:24.369Z,8.150
2022-10-06T14:12:25.677Z,6.000
2022-10-06T14:13:24.874Z,5.900
2022-10-06T14:14:21.922Z,5.600
2022-10-06T14:15:29.967Z,6.450
2022-10-06T14:16:27.363Z,5.700
2022-10-06T14:17:22.866Z,6.450
2022-10-06T14:18:21.782Z,6.300
2022-10-06T14:19:35.209Z,6.200
2022-10-06T14:20:20.916Z,8.900
2022-10-06T14:21:23.052Z,6.250
2022-10-06T14:22:25.896Z,9.300
2022-10-06T14:23:29.541Z,7.300
2022-10-06T14:24:24.391Z,6.600
2022-10-06T14:25:27.290Z,7.300
2022-10-06T14:26:31.159Z,5.000
2022-10-06T14:27:29.599Z,5.450
2022-10-06T14:28:22.245Z,5.000
2022-10-06T14:29:23.997Z,4.600
2022-10-06T14:30:25.934Z,4.350
2022-10-06T14:31:24.598Z,6.000
2022-10-06T14:32:33.633Z,7.700
2022-10-06T14:33:30.952Z,8.050
2022-10-06T14:34:23.942Z,10.500
2022-10-06T14:35:24.482Z,5.650
2022-10-06T14:36:30.224Z,6.250
2022-10-06T14:37:28.646Z,4.700
2022-10-06T14:38:22.540Z,6.400
2022-10-06T14:39:35.149Z,6.950
2022-10-06T14:40:24.333Z,7.700
2022-10-06T14:41:23.923Z,6.350
2022-10-06T14:42:22.113Z,7.800
2022-10-06T14:43:29.808Z,6.650
2022-10-06T14:44:28.516Z,5.250
2022-10-06T14:45:24.573Z,5.050
2022-10-06T14:46:33.164Z,5.400
2022-10-06T14:47:24.809Z,7.300
2022-10-06T14:48:26.698Z,6.250
2022-10-06T14:49:21.206Z,5.250
2022-10-06T14:50:27.086Z,5.650
2022-10-06T14:51:30.988Z,5.600
2022-10-06T14:52:27.827Z,4.700
2022-10-06T14:53:31.629Z,5.000
2022-10-06T14:54:27.893Z,4.700
2022-10-06T14:55:25.125Z,4.450
2022-10-06T14:56:19.932Z,5.400
2022-10-06T14:57:29.584Z,5.800
2022-10-06T14:58:22.194Z,5.950
2022-10-06T14:59:22.461Z,7.900
2022-10-06T15:00:22.811Z,5.100
2022-10-06T15:01:30.438Z,7.400
2022-10-06T15:02:27.023Z,5.100
2022-10-06T15:03:24.986Z,5.650
2022-10-06T15:04:35.688Z,6.750
2022-10-06T15:05:26.270Z,8.200
2022-10-06T15:06:21.793Z,5.950
2022-10-06T15:07:27.824Z,6.000
2022-10-06T15:08:28.546Z,7.100
2022-10-06T15:09:26.611Z,5.450
2022-10-06T15:10:25.394Z,5.400
2022-10-06T15:11:31.498Z,6.400
2022-10-06T15:12:33.855Z,5.400
2022-10-06T15:13:36.840Z,6.050
2022-10-06T15:14:33.734Z,6.100
2022-10-06T15:15:22.587Z,5.000
2022-10-06T15:16:23.783Z,5.600
2022-10-06T15:17:19.630Z,3.450
2022-10-06T15:18:30.118Z,5.200
2022-10-06T15:19:27.618Z,5.600
2022-10-06T15:20:28.184Z,6.400
2022-10-06T15:21:36.382Z,6.850
2022-10-06T15:22:29.771Z,6.350
2022-10-06T15:23:25.364Z,6.750